sensor_id;sensor_type;location;lat;lon;timestamp;temperature;humidity
10722;DHT22;5412;59.450;18.124;2023-09-18T00:00:50;11.70;99.90
10722;DHT22;5412;59.450;18.124;2023-09-18T00:03:20;11.80;99.90
10722;DHT22;5412;59.450;18.124;2023-09-18T00:05:47;11.80;99.90
10722;DHT22;5412;59.450;18.124;2023-09-18T00:08:18;11.90;99.90
10722;DHT22;5412;59.450;18.124;2023-09-18T00:10:53;11.90;99.90
10722;DHT22;5412;59.450;18.124;2023-09-18T00:13:19;11.90;99.90
10722;DHT22;5412;59.450;18.124;2023-09-18T00:15:45;11.90;99.90
10722;DHT22;5412;59.450;18.124;2023-09-18T00:18:15;11.80;99.90
10722;DHT22;5412;59.450;18.124;2023-09-18T00:20:41;11.70;99.90
10722;DHT22;5412;59.450;18.124;2023-09-18T00:23:08;11.60;99.90
10722;DHT22;5412;59.450;18.124;2023-09-18T00:25:34;11.60;99.90
10722;DHT22;5412;59.450;18.124;2023-09-18T00:28:00;11.60;99.90
10722;DHT22;5412;59.450;18.124;2023-09-18T00:30:26;11.50;99.90
10722;DHT22;5412;59.450;18.124;2023-09-18T00:32:51;11.50;99.90
10722;DHT22;5412;59.450;18.124;2023-09-18T00:35:17;11.50;99.90
10722;DHT22;5412;59.450;18.124;2023-09-18T00:37:43;11.40;99.90
10722;DHT22;5412;59.450;18.124;2023-09-18T00:40:09;11.30;99.90
10722;DHT22;5412;59.450;18.124;2023-09-18T00:42:36;11.30;99.90
10722;DHT22;5412;59.450;18.124;2023-09-18T00:45:02;11.30;99.90
10722;DHT22;5412;59.450;18.124;2023-09-18T00:47:28;11.30;99.90
10722;DHT22;5412;59.450;18.124;2023-09-18T00:49:54;11.20;99.90
10722;DHT22;5412;59.450;18.124;2023-09-18T00:52:22;11.20;99.90
10722;DHT22;5412;59.450;18.124;2023-09-18T00:54:49;11.10;99.90
10722;DHT22;5412;59.450;18.124;2023-09-18T00:57:15;11.00;99.90
10722;DHT22;5412;59.450;18.124;2023-09-18T00:59:41;11.00;99.90
10722;DHT22;5412;59.450;18.124;2023-09-18T01:02:07;11.10;99.90
10722;DHT22;5412;59.450;18.124;2023-09-18T01:04:34;11.20;99.90
10722;DHT22;5412;59.450;18.124;2023-09-18T01:07:00;11.30;99.90
10722;DHT22;5412;59.450;18.124;2023-09-18T01:09:32;11.30;99.90
10722;DHT22;5412;59.450;18.124;2023-09-18T01:15:00;11.40;99.90
10722;DHT22;5412;59.450;18.124;2023-09-18T01:17:30;11.40;99.90
10722;DHT22;5412;59.450;18.124;2023-09-18T01:19:56;11.40;99.90
10722;DHT22;5412;59.450;18.124;2023-09-18T01:22:22;11.40;99.90
10722;DHT22;5412;59.450;18.124;2023-09-18T01:24:48;11.40;99.90
10722;DHT22;5412;59.450;18.124;2023-09-18T01:27:15;11.30;99.90
10722;DHT22;5412;59.450;18.124;2023-09-18T01:29:45;11.20;99.90
10722;DHT22;5412;59.450;18.124;2023-09-18T01:32:11;11.20;99.90
10722;DHT22;5412;59.450;18.124;2023-09-18T01:34:41;11.10;99.90
10722;DHT22;5412;59.450;18.124;2023-09-18T01:37:10;11.00;99.90
10722;DHT22;5412;59.450;18.124;2023-09-18T01:39:37;11.10;99.90
10722;DHT22;5412;59.450;18.124;2023-09-18T01:42:05;11.10;99.90
10722;DHT22;5412;59.450;18.124;2023-09-18T01:44:35;11.10;99.90
10722;DHT22;5412;59.450;18.124;2023-09-18T01:47:03;11.10;99.90
10722;DHT22;5412;59.450;18.124;2023-09-18T01:49:32;11.20;99.90
10722;DHT22;5412;59.450;18.124;2023-09-18T01:51:58;11.20;99.90
10722;DHT22;5412;59.450;18.124;2023-09-18T01:54:24;11.10;99.90
10722;DHT22;5412;59.450;18.124;2023-09-18T01:56:50;11.10;99.90
10722;DHT22;5412;59.450;18.124;2023-09-18T01:59:17;11.10;99.90
10722;DHT22;5412;59.450;18.124;2023-09-18T02:01:43;11.20;99.90
10722;DHT22;5412;59.450;18.124;2023-09-18T02:04:09;11.10;99.90
10722;DHT22;5412;59.450;18.124;2023-09-18T02:06:35;11.00;99.90
10722;DHT22;5412;59.450;18.124;2023-09-18T02:09:01;10.90;99.90
10722;DHT22;5412;59.450;18.124;2023-09-18T02:11:29;10.90;99.90
10722;DHT22;5412;59.450;18.124;2023-09-18T02:13:55;10.90;99.90
10722;DHT22;5412;59.450;18.124;2023-09-18T02:16:22;10.90;99.90
10722;DHT22;5412;59.450;18.124;2023-09-18T02:18:48;10.90;99.90
10722;DHT22;5412;59.450;18.124;2023-09-18T02:21:20;10.80;99.90
10722;DHT22;5412;59.450;18.124;2023-09-18T02:23:49;10.90;99.90
10722;DHT22;5412;59.450;18.124;2023-09-18T02:26:19;10.90;99.90
10722;DHT22;5412;59.450;18.124;2023-09-18T02:28:45;10.90;99.90
10722;DHT22;5412;59.450;18.124;2023-09-18T02:31:11;11.00;99.90
10722;DHT22;5412;59.450;18.124;2023-09-18T02:33:38;11.10;99.90
10722;DHT22;5412;59.450;18.124;2023-09-18T02:36:04;11.10;99.90
10722;DHT22;5412;59.450;18.124;2023-09-18T02:38:30;11.20;99.90
10722;DHT22;5412;59.450;18.124;2023-09-18T02:40:56;11.20;99.90
10722;DHT22;5412;59.450;18.124;2023-09-18T02:43:23;11.20;99.90
10722;DHT22;5412;59.450;18.124;2023-09-18T02:45:49;11.20;99.90
10722;DHT22;5412;59.450;18.124;2023-09-18T02:48:16;11.20;99.90
10722;DHT22;5412;59.450;18.124;2023-09-18T02:50:45;11.20;99.90
10722;DHT22;5412;59.450;18.124;2023-09-18T02:53:24;11.20;99.90
10722;DHT22;5412;59.450;18.124;2023-09-18T02:55:51;11.10;99.90
10722;DHT22;5412;59.450;18.124;2023-09-18T02:58:18;11.10;99.90
10722;DHT22;5412;59.450;18.124;2023-09-18T03:00:46;11.10;99.90
10722;DHT22;5412;59.450;18.124;2023-09-18T03:03:12;11.00;99.90
10722;DHT22;5412;59.450;18.124;2023-09-18T03:05:39;10.70;99.90
10722;DHT22;5412;59.450;18.124;2023-09-18T03:08:05;10.60;99.90
10722;DHT22;5412;59.450;18.124;2023-09-18T03:10:39;10.50;99.90
10722;DHT22;5412;59.450;18.124;2023-09-18T03:13:06;10.40;99.90
10722;DHT22;5412;59.450;18.124;2023-09-18T03:15:32;10.40;99.90
10722;DHT22;5412;59.450;18.124;2023-09-18T03:17:59;10.50;99.90
10722;DHT22;5412;59.450;18.124;2023-09-18T03:20:27;10.60;99.90
10722;DHT22;5412;59.450;18.124;2023-09-18T03:22:57;10.60;99.90
10722;DHT22;5412;59.450;18.124;2023-09-18T03:25:24;10.70;99.90
10722;DHT22;5412;59.450;18.124;2023-09-18T03:27:54;10.70;99.90
10722;DHT22;5412;59.450;18.124;2023-09-18T03:30:21;10.80;99.90
10722;DHT22;5412;59.450;18.124;2023-09-18T03:32:47;10.80;99.90
10722;DHT22;5412;59.450;18.124;2023-09-18T03:35:16;10.80;99.90
10722;DHT22;5412;59.450;18.124;2023-09-18T03:37:50;10.70;99.90
10722;DHT22;5412;59.450;18.124;2023-09-18T03:40:17;10.70;99.90
10722;DHT22;5412;59.450;18.124;2023-09-18T03:42:44;10.80;99.90
10722;DHT22;5412;59.450;18.124;2023-09-18T03:45:10;10.80;99.90
10722;DHT22;5412;59.450;18.124;2023-09-18T03:47:37;10.80;99.90
10722;DHT22;5412;59.450;18.124;2023-09-18T03:50:08;10.80;99.90
10722;DHT22;5412;59.450;18.124;2023-09-18T03:52:35;10.80;99.90
10722;DHT22;5412;59.450;18.124;2023-09-18T03:55:00;10.90;99.90
10722;DHT22;5412;59.450;18.124;2023-09-18T03:57:26;10.80;99.90
10722;DHT22;5412;59.450;18.124;2023-09-18T03:59:52;10.80;99.90
10722;DHT22;5412;59.450;18.124;2023-09-18T04:02:18;10.80;99.90
10722;DHT22;5412;59.450;18.124;2023-09-18T04:04:44;10.90;99.90
10722;DHT22;5412;59.450;18.124;2023-09-18T04:07:09;10.80;99.90
10722;DHT22;5412;59.450;18.124;2023-09-18T04:09:37;10.80;99.90
10722;DHT22;5412;59.450;18.124;2023-09-18T04:12:04;10.80;99.90
10722;DHT22;5412;59.450;18.124;2023-09-18T04:14:33;10.60;99.90
10722;DHT22;5412;59.450;18.124;2023-09-18T04:16:58;10.60;99.90
10722;DHT22;5412;59.450;18.124;2023-09-18T04:19:26;10.60;99.90
10722;DHT22;5412;59.450;18.124;2023-09-18T04:21:52;10.60;99.90
10722;DHT22;5412;59.450;18.124;2023-09-18T04:24:18;10.80;99.90
10722;DHT22;5412;59.450;18.124;2023-09-18T04:26:43;10.70;99.90
10722;DHT22;5412;59.450;18.124;2023-09-18T04:29:09;10.80;99.90
10722;DHT22;5412;59.450;18.124;2023-09-18T04:31:35;10.80;99.90
10722;DHT22;5412;59.450;18.124;2023-09-18T04:34:01;10.70;99.90
10722;DHT22;5412;59.450;18.124;2023-09-18T04:36:28;10.60;99.90
10722;DHT22;5412;59.450;18.124;2023-09-18T04:38:54;10.60;99.90
10722;DHT22;5412;59.450;18.124;2023-09-18T04:41:19;10.60;99.90
10722;DHT22;5412;59.450;18.124;2023-09-18T04:43:45;10.70;99.90
10722;DHT22;5412;59.450;18.124;2023-09-18T04:46:11;10.60;99.90
10722;DHT22;5412;59.450;18.124;2023-09-18T04:48:37;10.60;99.90
10722;DHT22;5412;59.450;18.124;2023-09-18T04:51:03;10.70;99.90
10722;DHT22;5412;59.450;18.124;2023-09-18T04:53:30;10.70;99.90
10722;DHT22;5412;59.450;18.124;2023-09-18T04:55:56;10.80;99.90
10722;DHT22;5412;59.450;18.124;2023-09-18T04:58:21;10.90;99.90
10722;DHT22;5412;59.450;18.124;2023-09-18T05:00:56;11.00;99.90
10722;DHT22;5412;59.450;18.124;2023-09-18T05:03:23;11.10;99.90
10722;DHT22;5412;59.450;18.124;2023-09-18T05:05:49;11.20;99.90
10722;DHT22;5412;59.450;18.124;2023-09-18T05:08:14;11.20;99.90
10722;DHT22;5412;59.450;18.124;2023-09-18T05:10:40;11.20;99.90
10722;DHT22;5412;59.450;18.124;2023-09-18T05:13:06;11.20;99.90
10722;DHT22;5412;59.450;18.124;2023-09-18T05:15:32;11.30;99.90
10722;DHT22;5412;59.450;18.124;2023-09-18T05:17:59;11.20;99.90
10722;DHT22;5412;59.450;18.124;2023-09-18T05:20:28;11.00;99.90
10722;DHT22;5412;59.450;18.124;2023-09-18T05:22:55;11.00;99.90
10722;DHT22;5412;59.450;18.124;2023-09-18T05:25:22;11.00;99.90
10722;DHT22;5412;59.450;18.124;2023-09-18T05:27:49;11.00;99.90
10722;DHT22;5412;59.450;18.124;2023-09-18T05:30:24;11.00;99.90
10722;DHT22;5412;59.450;18.124;2023-09-18T05:32:50;11.10;99.90
10722;DHT22;5412;59.450;18.124;2023-09-18T05:35:16;11.20;99.90
10722;DHT22;5412;59.450;18.124;2023-09-18T05:37:43;11.30;99.90
10722;DHT22;5412;59.450;18.124;2023-09-18T05:40:11;11.30;99.90
10722;DHT22;5412;59.450;18.124;2023-09-18T05:42:41;11.40;99.90
10722;DHT22;5412;59.450;18.124;2023-09-18T05:45:12;11.40;99.90
10722;DHT22;5412;59.450;18.124;2023-09-18T05:47:38;11.50;99.90
10722;DHT22;5412;59.450;18.124;2023-09-18T05:50:08;11.50;99.90
10722;DHT22;5412;59.450;18.124;2023-09-18T05:52:34;11.60;99.90
10722;DHT22;5412;59.450;18.124;2023-09-18T05:55:04;11.60;99.90
10722;DHT22;5412;59.450;18.124;2023-09-18T05:57:29;11.70;99.90
10722;DHT22;5412;59.450;18.124;2023-09-18T05:59:56;11.80;99.90
10722;DHT22;5412;59.450;18.124;2023-09-18T06:02:22;11.90;99.90
10722;DHT22;5412;59.450;18.124;2023-09-18T06:04:48;12.00;99.90
10722;DHT22;5412;59.450;18.124;2023-09-18T06:07:14;12.10;99.90
10722;DHT22;5412;59.450;18.124;2023-09-18T06:09:40;12.10;99.90
10722;DHT22;5412;59.450;18.124;2023-09-18T06:12:07;12.20;99.90
10722;DHT22;5412;59.450;18.124;2023-09-18T06:14:32;12.30;99.90
10722;DHT22;5412;59.450;18.124;2023-09-18T06:17:04;12.40;99.90
10722;DHT22;5412;59.450;18.124;2023-09-18T06:19:29;12.50;99.90
10722;DHT22;5412;59.450;18.124;2023-09-18T06:21:56;12.70;99.90
10722;DHT22;5412;59.450;18.124;2023-09-18T06:24:21;12.80;99.90
10722;DHT22;5412;59.450;18.124;2023-09-18T06:26:47;12.90;99.90
10722;DHT22;5412;59.450;18.124;2023-09-18T06:29:13;12.90;99.90
10722;DHT22;5412;59.450;18.124;2023-09-18T06:31:39;13.00;99.90
10722;DHT22;5412;59.450;18.124;2023-09-18T06:34:04;13.10;99.90
10722;DHT22;5412;59.450;18.124;2023-09-18T06:36:30;13.20;99.90
10722;DHT22;5412;59.450;18.124;2023-09-18T06:38:56;13.30;99.90
10722;DHT22;5412;59.450;18.124;2023-09-18T06:41:22;13.30;99.90
10722;DHT22;5412;59.450;18.124;2023-09-18T06:43:48;13.30;99.90
10722;DHT22;5412;59.450;18.124;2023-09-18T06:46:13;13.50;99.90
10722;DHT22;5412;59.450;18.124;2023-09-18T06:48:39;13.50;99.90
10722;DHT22;5412;59.450;18.124;2023-09-18T06:51:04;13.60;99.90
10722;DHT22;5412;59.450;18.124;2023-09-18T06:53:31;13.60;99.90
10722;DHT22;5412;59.450;18.124;2023-09-18T06:55:57;13.70;99.90
10722;DHT22;5412;59.450;18.124;2023-09-18T06:58:23;13.70;99.90
10722;DHT22;5412;59.450;18.124;2023-09-18T07:00:48;13.80;99.90
10722;DHT22;5412;59.450;18.124;2023-09-18T07:03:16;13.80;99.90
10722;DHT22;5412;59.450;18.124;2023-09-18T07:05:43;13.90;99.90
10722;DHT22;5412;59.450;18.124;2023-09-18T07:08:09;13.90;99.90
10722;DHT22;5412;59.450;18.124;2023-09-18T07:10:38;14.10;99.90
10722;DHT22;5412;59.450;18.124;2023-09-18T07:13:04;14.20;99.90
10722;DHT22;5412;59.450;18.124;2023-09-18T07:15:29;14.20;99.90
10722;DHT22;5412;59.450;18.124;2023-09-18T07:17:55;14.30;99.90
10722;DHT22;5412;59.450;18.124;2023-09-18T07:20:21;14.50;99.90
10722;DHT22;5412;59.450;18.124;2023-09-18T07:22:48;14.60;99.90
10722;DHT22;5412;59.450;18.124;2023-09-18T07:25:15;14.80;99.90
10722;DHT22;5412;59.450;18.124;2023-09-18T07:27:41;14.90;99.90
10722;DHT22;5412;59.450;18.124;2023-09-18T07:30:13;14.90;99.90
10722;DHT22;5412;59.450;18.124;2023-09-18T07:32:42;14.90;99.90
10722;DHT22;5412;59.450;18.124;2023-09-18T07:35:09;15.00;99.90
10722;DHT22;5412;59.450;18.124;2023-09-18T07:37:35;15.10;99.90
10722;DHT22;5412;59.450;18.124;2023-09-18T07:40:05;15.00;99.90
10722;DHT22;5412;59.450;18.124;2023-09-18T07:42:31;15.20;99.90
10722;DHT22;5412;59.450;18.124;2023-09-18T07:44:57;15.30;99.90
10722;DHT22;5412;59.450;18.124;2023-09-18T07:47:23;15.50;99.90
10722;DHT22;5412;59.450;18.124;2023-09-18T07:49:49;15.60;99.90
10722;DHT22;5412;59.450;18.124;2023-09-18T07:52:16;15.60;99.90
10722;DHT22;5412;59.450;18.124;2023-09-18T07:54:42;15.60;99.90
10722;DHT22;5412;59.450;18.124;2023-09-18T07:57:08;15.50;99.90
10722;DHT22;5412;59.450;18.124;2023-09-18T07:59:37;15.60;99.90
10722;DHT22;5412;59.450;18.124;2023-09-18T08:02:04;15.70;99.90
10722;DHT22;5412;59.450;18.124;2023-09-18T08:04:33;15.70;99.90
10722;DHT22;5412;59.450;18.124;2023-09-18T08:06:59;15.80;99.90
10722;DHT22;5412;59.450;18.124;2023-09-18T08:09:26;15.70;99.90
10722;DHT22;5412;59.450;18.124;2023-09-18T08:11:54;15.80;99.90
10722;DHT22;5412;59.450;18.124;2023-09-18T08:14:21;15.80;99.90
10722;DHT22;5412;59.450;18.124;2023-09-18T08:16:47;15.80;99.90
10722;DHT22;5412;59.450;18.124;2023-09-18T08:19:16;15.90;99.90
10722;DHT22;5412;59.450;18.124;2023-09-18T08:21:45;16.00;99.90
10722;DHT22;5412;59.450;18.124;2023-09-18T08:24:11;16.10;99.90
10722;DHT22;5412;59.450;18.124;2023-09-18T08:26:37;16.20;99.90
10722;DHT22;5412;59.450;18.124;2023-09-18T08:29:03;16.20;99.90
10722;DHT22;5412;59.450;18.124;2023-09-18T08:31:29;16.20;99.90
10722;DHT22;5412;59.450;18.124;2023-09-18T08:33:57;16.20;99.90
10722;DHT22;5412;59.450;18.124;2023-09-18T08:36:23;16.30;99.90
10722;DHT22;5412;59.450;18.124;2023-09-18T08:38:49;16.40;99.90
10722;DHT22;5412;59.450;18.124;2023-09-18T08:41:17;16.50;99.90
10722;DHT22;5412;59.450;18.124;2023-09-18T08:43:43;16.50;99.90
10722;DHT22;5412;59.450;18.124;2023-09-18T08:46:10;16.50;99.90
10722;DHT22;5412;59.450;18.124;2023-09-18T08:48:36;16.50;99.90
10722;DHT22;5412;59.450;18.124;2023-09-18T08:51:04;16.60;99.90
10722;DHT22;5412;59.450;18.124;2023-09-18T08:53:34;16.60;99.90
10722;DHT22;5412;59.450;18.124;2023-09-18T08:56:01;16.70;99.90
10722;DHT22;5412;59.450;18.124;2023-09-18T08:58:34;16.70;99.90
10722;DHT22;5412;59.450;18.124;2023-09-18T09:01:03;16.70;99.90
10722;DHT22;5412;59.450;18.124;2023-09-18T09:03:30;16.80;99.90
10722;DHT22;5412;59.450;18.124;2023-09-18T09:05:57;16.80;99.90
10722;DHT22;5412;59.450;18.124;2023-09-18T09:08:27;16.80;99.90
10722;DHT22;5412;59.450;18.124;2023-09-18T09:10:53;16.90;99.90
10722;DHT22;5412;59.450;18.124;2023-09-18T09:13:19;17.00;99.90
10722;DHT22;5412;59.450;18.124;2023-09-18T09:15:52;17.00;99.90
10722;DHT22;5412;59.450;18.124;2023-09-18T09:18:20;16.90;99.90
10722;DHT22;5412;59.450;18.124;2023-09-18T09:21:03;17.00;99.90
10722;DHT22;5412;59.450;18.124;2023-09-18T09:23:48;17.00;99.90
10722;DHT22;5412;59.450;18.124;2023-09-18T09:26:16;16.70;99.90
10722;DHT22;5412;59.450;18.124;2023-09-18T09:28:43;16.70;99.90
10722;DHT22;5412;59.450;18.124;2023-09-18T09:31:10;16.60;99.90
10722;DHT22;5412;59.450;18.124;2023-09-18T09:33:51;16.60;99.90
10722;DHT22;5412;59.450;18.124;2023-09-18T09:36:22;16.80;99.90
10722;DHT22;5412;59.450;18.124;2023-09-18T09:38:49;17.00;99.90
10722;DHT22;5412;59.450;18.124;2023-09-18T09:41:19;17.30;99.90
10722;DHT22;5412;59.450;18.124;2023-09-18T09:43:45;17.30;99.90
10722;DHT22;5412;59.450;18.124;2023-09-18T09:46:18;17.30;99.90
10722;DHT22;5412;59.450;18.124;2023-09-18T09:51:25;17.30;99.90
10722;DHT22;5412;59.450;18.124;2023-09-18T09:53:50;17.10;99.90
10722;DHT22;5412;59.450;18.124;2023-09-18T09:56:17;17.10;99.90
10722;DHT22;5412;59.450;18.124;2023-09-18T09:59:03;17.30;99.90
10722;DHT22;5412;59.450;18.124;2023-09-18T10:01:36;17.20;99.90
10722;DHT22;5412;59.450;18.124;2023-09-18T10:04:13;17.40;99.90
10722;DHT22;5412;59.450;18.124;2023-09-18T10:06:44;17.60;99.90
10722;DHT22;5412;59.450;18.124;2023-09-18T10:09:12;17.70;99.90
10722;DHT22;5412;59.450;18.124;2023-09-18T10:11:41;17.90;99.90
10722;DHT22;5412;59.450;18.124;2023-09-18T10:14:15;17.90;99.90
10722;DHT22;5412;59.450;18.124;2023-09-18T10:16:46;18.00;99.90
10722;DHT22;5412;59.450;18.124;2023-09-18T10:19:30;17.80;99.90
10722;DHT22;5412;59.450;18.124;2023-09-18T10:24:33;17.70;99.90
10722;DHT22;5412;59.450;18.124;2023-09-18T10:27:03;17.80;99.90
10722;DHT22;5412;59.450;18.124;2023-09-18T10:29:31;17.90;99.90
10722;DHT22;5412;59.450;18.124;2023-09-18T10:31:58;17.70;99.90
10722;DHT22;5412;59.450;18.124;2023-09-18T10:34:25;17.60;99.90
10722;DHT22;5412;59.450;18.124;2023-09-18T10:36:52;17.40;99.90
10722;DHT22;5412;59.450;18.124;2023-09-18T10:39:18;17.50;99.90
10722;DHT22;5412;59.450;18.124;2023-09-18T10:41:49;17.50;99.90
10722;DHT22;5412;59.450;18.124;2023-09-18T10:44:17;17.40;99.90
10722;DHT22;5412;59.450;18.124;2023-09-18T10:46:45;17.50;99.90
10722;DHT22;5412;59.450;18.124;2023-09-18T10:49:11;17.50;99.90
10722;DHT22;5412;59.450;18.124;2023-09-18T10:51:38;17.50;99.90
10722;DHT22;5412;59.450;18.124;2023-09-18T10:54:13;17.60;99.90
10722;DHT22;5412;59.450;18.124;2023-09-18T10:56:43;17.40;99.90
10722;DHT22;5412;59.450;18.124;2023-09-18T10:59:10;17.30;99.90
10722;DHT22;5412;59.450;18.124;2023-09-18T11:01:36;17.20;99.90
10722;DHT22;5412;59.450;18.124;2023-09-18T11:04:04;17.40;99.90
10722;DHT22;5412;59.450;18.124;2023-09-18T11:14:59;17.60;99.90
10722;DHT22;5412;59.450;18.124;2023-09-18T11:17:39;17.60;99.90
10722;DHT22;5412;59.450;18.124;2023-09-18T11:22:51;17.80;99.90
10722;DHT22;5412;59.450;18.124;2023-09-18T11:25:40;17.90;99.90
10722;DHT22;5412;59.450;18.124;2023-09-18T11:28:25;17.90;99.90
10722;DHT22;5412;59.450;18.124;2023-09-18T11:30:56;17.90;99.90
10722;DHT22;5412;59.450;18.124;2023-09-18T11:33:45;17.90;99.90
10722;DHT22;5412;59.450;18.124;2023-09-18T11:36:28;17.80;99.90
10722;DHT22;5412;59.450;18.124;2023-09-18T11:38:57;18.00;99.90
10722;DHT22;5412;59.450;18.124;2023-09-18T11:41:30;17.80;99.90
10722;DHT22;5412;59.450;18.124;2023-09-18T11:46:49;17.80;99.90
10722;DHT22;5412;59.450;18.124;2023-09-18T11:49:23;17.90;99.90
10722;DHT22;5412;59.450;18.124;2023-09-18T11:51:53;18.00;99.90
10722;DHT22;5412;59.450;18.124;2023-09-18T11:54:19;18.10;99.90
10722;DHT22;5412;59.450;18.124;2023-09-18T11:56:45;18.10;99.90
10722;DHT22;5412;59.450;18.124;2023-09-18T11:59:11;18.10;99.90
10722;DHT22;5412;59.450;18.124;2023-09-18T12:01:38;18.10;99.90
10722;DHT22;5412;59.450;18.124;2023-09-18T12:04:05;18.20;99.90
10722;DHT22;5412;59.450;18.124;2023-09-18T12:06:34;18.20;99.90
10722;DHT22;5412;59.450;18.124;2023-09-18T12:09:01;18.30;99.90
10722;DHT22;5412;59.450;18.124;2023-09-18T12:11:27;18.20;99.90
10722;DHT22;5412;59.450;18.124;2023-09-18T12:13:53;18.20;99.90
10722;DHT22;5412;59.450;18.124;2023-09-18T12:16:18;18.00;99.90
10722;DHT22;5412;59.450;18.124;2023-09-18T12:18:48;18.00;99.90
10722;DHT22;5412;59.450;18.124;2023-09-18T12:21:15;17.90;99.90
10722;DHT22;5412;59.450;18.124;2023-09-18T12:23:44;17.80;99.90
10722;DHT22;5412;59.450;18.124;2023-09-18T12:26:14;17.80;99.90
10722;DHT22;5412;59.450;18.124;2023-09-18T12:28:42;17.80;99.90
10722;DHT22;5412;59.450;18.124;2023-09-18T12:31:15;17.90;99.90
10722;DHT22;5412;59.450;18.124;2023-09-18T12:33:42;17.90;99.90
10722;DHT22;5412;59.450;18.124;2023-09-18T12:36:18;17.70;99.90
10722;DHT22;5412;59.450;18.124;2023-09-18T12:38:55;17.60;99.90
10722;DHT22;5412;59.450;18.124;2023-09-18T12:41:21;17.60;99.90
10722;DHT22;5412;59.450;18.124;2023-09-18T12:43:47;17.80;99.90
10722;DHT22;5412;59.450;18.124;2023-09-18T12:46:13;17.80;99.90
10722;DHT22;5412;59.450;18.124;2023-09-18T12:48:40;17.80;99.90
10722;DHT22;5412;59.450;18.124;2023-09-18T12:51:11;17.70;99.90
10722;DHT22;5412;59.450;18.124;2023-09-18T12:53:37;17.70;99.90
10722;DHT22;5412;59.450;18.124;2023-09-18T12:56:08;17.70;99.90
10722;DHT22;5412;59.450;18.124;2023-09-18T12:58:35;17.60;99.90
10722;DHT22;5412;59.450;18.124;2023-09-18T13:01:07;17.60;99.90
10722;DHT22;5412;59.450;18.124;2023-09-18T13:03:43;17.50;99.90
10722;DHT22;5412;59.450;18.124;2023-09-18T13:06:19;17.60;99.90
10722;DHT22;5412;59.450;18.124;2023-09-18T13:08:46;17.90;99.90
10722;DHT22;5412;59.450;18.124;2023-09-18T13:11:12;18.00;99.90
10722;DHT22;5412;59.450;18.124;2023-09-18T13:13:40;18.20;99.90
10722;DHT22;5412;59.450;18.124;2023-09-18T13:16:09;18.20;99.90
10722;DHT22;5412;59.450;18.124;2023-09-18T13:18:36;18.50;99.90
10722;DHT22;5412;59.450;18.124;2023-09-18T13:21:14;18.70;99.90
10722;DHT22;5412;59.450;18.124;2023-09-18T13:23:40;18.90;99.90
10722;DHT22;5412;59.450;18.124;2023-09-18T13:26:07;19.10;99.90
10722;DHT22;5412;59.450;18.124;2023-09-18T13:28:34;19.20;99.90
10722;DHT22;5412;59.450;18.124;2023-09-18T13:31:05;19.00;99.90
10722;DHT22;5412;59.450;18.124;2023-09-18T13:33:32;18.80;99.90
10722;DHT22;5412;59.450;18.124;2023-09-18T13:35:59;18.70;99.90
10722;DHT22;5412;59.450;18.124;2023-09-18T13:38:25;18.50;99.90
10722;DHT22;5412;59.450;18.124;2023-09-18T13:40:54;18.80;99.90
10722;DHT22;5412;59.450;18.124;2023-09-18T13:43:22;19.70;99.90
10722;DHT22;5412;59.450;18.124;2023-09-18T13:45:49;20.00;99.90
10722;DHT22;5412;59.450;18.124;2023-09-18T13:48:17;20.60;99.90
10722;DHT22;5412;59.450;18.124;2023-09-18T13:50:43;20.70;99.90
10722;DHT22;5412;59.450;18.124;2023-09-18T13:53:09;20.70;99.90
10722;DHT22;5412;59.450;18.124;2023-09-18T13:55:35;20.70;99.90
10722;DHT22;5412;59.450;18.124;2023-09-18T13:58:01;20.60;99.90
10722;DHT22;5412;59.450;18.124;2023-09-18T14:00:30;20.60;99.90
10722;DHT22;5412;59.450;18.124;2023-09-18T14:02:56;20.40;99.90
10722;DHT22;5412;59.450;18.124;2023-09-18T14:05:22;20.30;99.90
10722;DHT22;5412;59.450;18.124;2023-09-18T14:07:48;20.00;99.90
10722;DHT22;5412;59.450;18.124;2023-09-18T14:10:15;20.10;99.90
10722;DHT22;5412;59.450;18.124;2023-09-18T14:12:42;20.00;99.90
10722;DHT22;5412;59.450;18.124;2023-09-18T14:15:08;19.70;99.90
10722;DHT22;5412;59.450;18.124;2023-09-18T14:17:35;19.50;99.90
10722;DHT22;5412;59.450;18.124;2023-09-18T14:20:02;19.40;99.90
10722;DHT22;5412;59.450;18.124;2023-09-18T14:22:32;19.30;99.90
10722;DHT22;5412;59.450;18.124;2023-09-18T14:24:58;19.20;99.90
10722;DHT22;5412;59.450;18.124;2023-09-18T14:27:24;19.20;99.90
10722;DHT22;5412;59.450;18.124;2023-09-18T14:29:49;19.00;99.90
10722;DHT22;5412;59.450;18.124;2023-09-18T14:32:15;18.90;99.90
10722;DHT22;5412;59.450;18.124;2023-09-18T14:34:41;18.70;99.90
10722;DHT22;5412;59.450;18.124;2023-09-18T14:37:07;18.30;99.90
10722;DHT22;5412;59.450;18.124;2023-09-18T14:39:34;18.10;99.90
10722;DHT22;5412;59.450;18.124;2023-09-18T14:42:00;18.00;99.90
10722;DHT22;5412;59.450;18.124;2023-09-18T14:44:26;17.80;99.90
10722;DHT22;5412;59.450;18.124;2023-09-18T14:46:56;17.80;99.90
10722;DHT22;5412;59.450;18.124;2023-09-18T14:49:22;17.70;99.90
10722;DHT22;5412;59.450;18.124;2023-09-18T14:51:48;17.60;99.90
10722;DHT22;5412;59.450;18.124;2023-09-18T14:54:15;17.50;99.90
10722;DHT22;5412;59.450;18.124;2023-09-18T14:56:41;17.40;99.90
10722;DHT22;5412;59.450;18.124;2023-09-18T14:59:07;17.30;99.90
10722;DHT22;5412;59.450;18.124;2023-09-18T15:01:33;17.40;99.90
10722;DHT22;5412;59.450;18.124;2023-09-18T15:03:59;17.30;99.90
10722;DHT22;5412;59.450;18.124;2023-09-18T15:06:25;17.20;99.90
10722;DHT22;5412;59.450;18.124;2023-09-18T15:08:52;17.10;99.90
10722;DHT22;5412;59.450;18.124;2023-09-18T15:11:18;17.10;99.90
10722;DHT22;5412;59.450;18.124;2023-09-18T15:13:44;17.10;99.90
10722;DHT22;5412;59.450;18.124;2023-09-18T15:16:10;17.00;99.90
10722;DHT22;5412;59.450;18.124;2023-09-18T15:18:36;17.00;99.90
10722;DHT22;5412;59.450;18.124;2023-09-18T15:21:02;17.00;99.90
10722;DHT22;5412;59.450;18.124;2023-09-18T15:23:28;17.00;99.90
10722;DHT22;5412;59.450;18.124;2023-09-18T15:25:55;16.90;99.90
10722;DHT22;5412;59.450;18.124;2023-09-18T15:28:26;16.80;99.90
10722;DHT22;5412;59.450;18.124;2023-09-18T15:30:54;16.80;99.90
10722;DHT22;5412;59.450;18.124;2023-09-18T15:33:20;16.80;99.90
10722;DHT22;5412;59.450;18.124;2023-09-18T15:35:51;16.70;99.90
10722;DHT22;5412;59.450;18.124;2023-09-18T15:38:18;16.80;99.90
10722;DHT22;5412;59.450;18.124;2023-09-18T15:40:43;16.60;99.90
10722;DHT22;5412;59.450;18.124;2023-09-18T15:43:09;16.70;99.90
10722;DHT22;5412;59.450;18.124;2023-09-18T15:45:35;16.70;99.90
10722;DHT22;5412;59.450;18.124;2023-09-18T15:48:04;16.70;99.90
10722;DHT22;5412;59.450;18.124;2023-09-18T15:50:31;16.70;99.90
10722;DHT22;5412;59.450;18.124;2023-09-18T15:52:57;16.70;99.90
10722;DHT22;5412;59.450;18.124;2023-09-18T15:55:23;16.70;99.90